createdAt,value
2018-04-14T00:00:10.840Z,0
2018-04-14T00:01:11.447Z,0
2018-04-14T00:02:10.577Z,0
2018-04-14T00:03:11.178Z,0
2018-04-14T00:04:11.469Z,0
2018-04-14T00:05:10.647Z,0
2018-04-14T00:06:11.010Z,0
2018-04-14T00:07:10.957Z,0
2018-04-14T00:08:11.285Z,0
2018-04-14T00:09:11.566Z,0
2018-04-14T00:10:11.069Z,0
2018-04-14T00:11:11.088Z,0
2018-04-14T00:12:11.357Z,0
2018-04-14T00:13:10.826Z,0
2018-04-14T00:14:11.401Z,0
2018-04-14T00:15:11.676Z,0
2018-04-14T00:16:11.710Z,0
2018-04-14T00:17:11.144Z,0
2018-04-14T00:18:10.881Z,0
2018-04-14T00:19:11.202Z,0
2018-04-14T00:20:11.223Z,0
2018-04-14T00:21:11.599Z,0
2018-04-14T00:22:11.541Z,0
2018-04-14T00:23:11.559Z,0
2018-04-14T00:24:11.851Z,0
2018-04-14T00:25:10.997Z,0
2018-04-14T00:26:11.101Z,0
2018-04-14T00:27:11.646Z,0
2018-04-14T00:28:11.374Z,0
2018-04-14T00:29:11.958Z,0
2018-04-14T00:30:11.688Z,0
2018-04-14T00:31:11.433Z,0
2018-04-14T00:32:11.460Z,0
2018-04-14T00:33:11.194Z,0
2018-04-14T00:34:11.772Z,0
2018-04-14T00:35:12.058Z,0
2018-04-14T00:36:12.089Z,0
2018-04-14T00:37:12.095Z,0
2018-04-14T00:38:12.114Z,0
2018-04-14T00:39:11.581Z,0
2018-04-14T00:40:11.894Z,0
2018-04-14T00:41:12.198Z,0
2018-04-14T00:42:12.188Z,0
2018-04-14T00:43:11.934Z,0
2018-04-14T00:44:11.642Z,0
2018-04-14T00:45:12.219Z,0
2018-04-14T00:46:12.249Z,0
2018-04-14T00:47:11.715Z,0
2018-04-14T00:48:11.456Z,0
2018-04-14T00:49:11.197Z,0
2018-04-14T00:50:12.050Z,0
2018-04-14T00:51:12.106Z,0
2018-04-14T00:52:12.387Z,0
2018-04-14T00:53:12.123Z,0
2018-04-14T00:54:11.569Z,0
2018-04-14T00:55:12.134Z,0
2018-04-14T00:56:11.852Z,0
2018-04-14T00:57:12.459Z,0
2018-04-14T00:58:12.180Z,0
2018-04-14T00:59:11.635Z,0
2018-04-14T01:00:12.492Z,0
2018-04-14T01:01:12.250Z,0
2018-04-14T01:02:11.989Z,0
2018-04-14T01:03:12.576Z,0
2018-04-14T01:04:12.051Z,0
2018-04-14T01:05:12.612Z,0
2018-04-14T01:06:12.418Z,0
2018-04-14T01:07:12.644Z,0
2018-04-14T01:08:12.395Z,0
2018-04-14T01:09:12.433Z,0
2018-04-14T01:10:12.432Z,0
2018-04-14T01:11:12.755Z,0
2018-04-14T01:12:12.740Z,0
2018-04-14T01:13:12.473Z,0
2018-04-14T01:14:12.774Z,0
2018-04-14T01:15:12.759Z,0
2018-04-14T01:16:12.909Z,0
2018-04-14T01:17:12.331Z,0
2018-04-14T01:18:12.562Z,0
2018-04-14T01:19:12.306Z,0
2018-04-14T01:20:12.606Z,0
2018-04-14T01:21:12.622Z,0
2018-04-14T01:22:12.350Z,0
2018-04-14T01:23:12.732Z,0
2018-04-14T01:24:12.968Z,0
2018-04-14T01:25:12.967Z,0
2018-04-14T01:26:13.262Z,0
2018-04-14T01:27:13.019Z,0
2018-04-14T01:28:12.455Z,0
2018-04-14T01:29:12.771Z,0
2018-04-14T01:30:12.789Z,0
2018-04-14T01:31:12.809Z,0
2018-04-14T01:32:12.606Z,0
2018-04-14T01:33:12.834Z,0
2018-04-14T01:34:13.127Z,0
2018-04-14T01:35:12.876Z,0
2018-04-14T01:36:13.201Z,0
2018-04-14T01:37:12.347Z,0
2018-04-14T01:38:13.207Z,0
2018-04-14T01:39:12.937Z,0
2018-04-14T01:40:12.680Z,0
2018-04-14T01:41:12.988Z,0
2018-04-14T01:42:12.779Z,0
2018-04-14T01:43:12.736Z,0
2018-04-14T01:44:12.760Z,0
2018-04-14T01:45:13.066Z,0
2018-04-14T01:46:13.330Z,0
2018-04-14T01:47:12.930Z,0
2018-04-14T01:48:13.111Z,0
2018-04-14T01:49:13.380Z,0
2018-04-14T01:50:13.160Z,0
2018-04-14T01:51:12.895Z,0
2018-04-14T01:52:12.889Z,0
2018-04-14T01:53:13.207Z,0
2018-04-14T01:54:12.921Z,0
2018-04-14T01:55:13.533Z,0
2018-04-14T01:56:13.267Z,0
2018-04-14T01:57:13.572Z,0
2018-04-14T01:58:13.288Z,0
2018-04-14T01:59:13.319Z,0
2018-04-14T02:00:13.601Z,0
2018-04-14T02:01:13.051Z,0
2018-04-14T02:02:13.382Z,0
2018-04-14T02:03:13.385Z,0
2018-04-14T02:04:13.139Z,0
2018-04-14T02:05:13.118Z,0
2018-04-14T02:06:13.421Z,0
2018-04-14T02:07:13.523Z,0
2018-04-14T02:08:13.440Z,0
2018-04-14T02:09:13.484Z,0
2018-04-14T02:10:13.496Z,0
2018-04-14T02:11:13.520Z,0
2018-04-14T02:12:13.847Z,0
2018-04-14T02:13:13.852Z,0
2018-04-14T02:14:13.596Z,0
2018-04-14T02:15:13.596Z,0
2018-04-14T02:16:13.894Z,0
2018-04-14T02:17:13.663Z,0
2018-04-14T02:18:13.947Z,0
2018-04-14T02:19:13.949Z,0
2018-04-14T02:20:13.412Z,0
2018-04-14T02:21:13.694Z,0
2018-04-14T02:22:14.034Z,0
2018-04-14T02:23:14.039Z,0
2018-04-14T02:24:13.463Z,0
2018-04-14T02:25:14.035Z,0
2018-04-14T02:26:12.947Z,0
2018-04-14T02:27:13.811Z,0
2018-04-14T02:28:13.529Z,0
2018-04-14T02:29:13.871Z,0
2018-04-14T02:30:13.892Z,0
2018-04-14T02:31:13.905Z,0
2018-04-14T02:32:14.211Z,0
2018-04-14T02:33:13.913Z,0
2018-04-14T02:34:13.967Z,0
2018-04-14T02:35:14.242Z,0
2018-04-14T02:36:14.257Z,0
2018-04-14T02:37:13.718Z,0
2018-04-14T02:38:14.312Z,0
2018-04-14T02:39:14.336Z,0
2018-04-14T02:40:14.058Z,0
2018-04-14T02:41:14.364Z,0
2018-04-14T02:42:13.538Z,0
2018-04-14T02:43:14.366Z,0
2018-04-14T02:44:14.408Z,0
2018-04-14T02:45:14.437Z,0
2018-04-14T02:46:14.150Z,0
2018-04-14T02:47:14.231Z,0
2018-04-14T02:48:13.907Z,0
2018-04-14T02:49:13.952Z,0
2018-04-14T02:50:14.502Z,0
2018-04-14T02:51:14.543Z,0
2018-04-14T02:52:14.694Z,0
2018-04-14T02:53:14.011Z,0
2018-04-14T02:54:14.610Z,0
2018-04-14T02:55:14.620Z,0
2018-04-14T02:56:14.334Z,0
2018-04-14T02:57:14.074Z,0
2018-04-14T02:58:14.369Z,0
2018-04-14T02:59:14.116Z,0
2018-04-14T03:00:14.435Z,0
2018-04-14T03:01:14.697Z,0
2018-04-14T03:02:14.447Z,0
2018-04-14T03:03:14.460Z,0
2018-04-14T03:04:14.784Z,0
2018-04-14T03:05:14.799Z,0
2018-04-14T03:06:14.515Z,0
2018-04-14T03:07:14.253Z,0
2018-04-14T03:08:14.555Z,0
2018-04-14T03:09:14.877Z,0
2018-04-14T03:10:14.950Z,0
2018-04-14T03:11:14.048Z,0
2018-04-14T03:12:14.954Z,0
2018-04-14T03:13:14.928Z,0
2018-04-14T03:14:14.669Z,0
2018-04-14T03:15:14.948Z,0
2018-04-14T03:16:14.984Z,0
2018-04-14T03:17:15.022Z,0
2018-04-14T03:18:14.444Z,0
2018-04-14T03:19:14.768Z,0
2018-04-14T03:20:14.208Z,0
2018-04-14T03:21:14.779Z,0
2018-04-14T03:22:14.829Z,0
2018-04-14T03:23:15.082Z,0
2018-04-14T03:24:14.817Z,0
2018-04-14T03:25:14.566Z,0
2018-04-14T03:26:14.659Z,0
2018-04-14T03:27:14.623Z,0
2018-04-14T03:28:14.937Z,0
2018-04-14T03:29:14.634Z,0
2018-04-14T03:30:14.706Z,0
2018-04-14T03:31:15.350Z,0
2018-04-14T03:32:15.263Z,0
2018-04-14T03:33:14.738Z,0
2018-04-14T03:34:14.721Z,0
2018-04-14T03:35:15.030Z,0
2018-04-14T03:36:15.351Z,0
2018-04-14T03:37:15.374Z,0
2018-04-14T03:38:15.122Z,0
2018-04-14T03:39:14.828Z,0
2018-04-14T03:40:15.155Z,0
2018-04-14T03:41:15.154Z,0
2018-04-14T03:42:15.179Z,0
2018-04-14T03:43:15.225Z,0
2018-04-14T03:44:15.681Z,0
2018-04-14T03:45:15.242Z,0
2018-04-14T03:46:14.646Z,0
2018-04-14T03:47:15.240Z,0
2018-04-14T03:48:15.559Z,0
2018-04-14T03:49:15.254Z,0
2018-04-14T03:50:15.336Z,0
2018-04-14T03:51:15.314Z,0
2018-04-14T03:52:15.388Z,0
2018-04-14T03:53:15.106Z,0
2018-04-14T03:54:15.357Z,0
2018-04-14T03:55:15.111Z,0
2018-04-14T03:56:15.410Z,0
2018-04-14T03:57:14.844Z,0
2018-04-14T03:58:15.749Z,0
2018-04-14T03:59:15.746Z,0
2018-04-14T04:00:15.203Z,0
2018-04-14T04:01:15.831Z,0
2018-04-14T04:02:15.235Z,0
2018-04-14T04:03:15.796Z,0
2018-04-14T04:04:15.839Z,0
2018-04-14T04:05:15.573Z,0
2018-04-14T04:06:15.576Z,0
2018-04-14T04:07:15.593Z,0
2018-04-14T04:08:15.915Z,0
2018-04-14T04:09:15.360Z,0
2018-04-14T04:10:15.627Z,0
2018-04-14T04:11:15.959Z,0
2018-04-14T04:12:15.151Z,0
2018-04-14T04:13:16.018Z,0
2018-04-14T04:14:16.032Z,0
2018-04-14T04:15:16.037Z,0
2018-04-14T04:16:15.781Z,0
2018-04-14T04:17:16.073Z,0
2018-04-14T04:18:16.080Z,0
2018-04-14T04:19:15.809Z,0
2018-04-14T04:20:16.098Z,0
2018-04-14T04:21:15.847Z,0
2018-04-14T04:22:16.140Z,0
2018-04-14T04:23:15.869Z,0
2018-04-14T04:24:15.951Z,0
2018-04-14T04:25:15.928Z,0
2018-04-14T04:26:16.205Z,0
2018-04-14T04:27:15.989Z,0
2018-04-14T04:28:16.204Z,0
2018-04-14T04:29:16.259Z,0
2018-04-14T04:30:16.296Z,0
2018-04-14T04:31:16.032Z,0
2018-04-14T04:32:16.317Z,0
2018-04-14T04:33:16.315Z,0
2018-04-14T04:34:15.571Z,0
2018-04-14T04:35:16.149Z,0
2018-04-14T04:36:16.435Z,0
2018-04-14T04:37:15.848Z,0
2018-04-14T04:38:16.454Z,0
2018-04-14T04:39:16.176Z,0
2018-04-14T04:40:16.188Z,0
2018-04-14T04:41:15.939Z,0
2018-04-14T04:42:15.963Z,0
2018-04-14T04:43:16.216Z,0
2018-04-14T04:44:16.573Z,0
2018-04-14T04:45:15.991Z,0
2018-04-14T04:46:16.608Z,0
2018-04-14T04:47:16.587Z,0
2018-04-14T04:48:16.113Z,0
2018-04-14T04:49:16.378Z,0
2018-04-14T04:50:16.390Z,0
2018-04-14T04:51:16.417Z,0
2018-04-14T04:52:16.702Z,0
2018-04-14T04:53:16.766Z,0
2018-04-14T04:54:16.419Z,0
2018-04-14T04:55:16.467Z,0
2018-04-14T04:56:16.776Z,0
2018-04-14T04:57:16.751Z,0
2018-04-14T04:58:16.203Z,0
2018-04-14T04:59:16.812Z,0
2018-04-14T05:00:16.820Z,0
2018-04-14T05:01:16.579Z,0
2018-04-14T05:02:16.329Z,0
2018-04-14T05:03:16.670Z,0
2018-04-14T05:04:16.935Z,5
2018-04-14T05:05:16.921Z,0
2018-04-14T05:06:16.936Z,0
2018-04-14T05:07:16.984Z,0
2018-04-14T05:08:16.737Z,0
2018-04-14T05:09:16.974Z,5
2018-04-14T05:10:17.008Z,5
2018-04-14T05:11:16.729Z,5
2018-04-14T05:12:16.488Z,5
2018-04-14T05:13:17.105Z,5
2018-04-14T05:14:16.513Z,5
2018-04-14T05:15:16.539Z,5
2018-04-14T05:16:16.834Z,5
2018-04-14T05:17:16.881Z,5
2018-04-14T05:18:17.143Z,5
2018-04-14T05:19:17.183Z,5
2018-04-14T05:20:16.902Z,5
2018-04-14T05:21:16.717Z,5
2018-04-14T05:22:16.947Z,5
2018-04-14T05:23:17.247Z,5
2018-04-14T05:24:17.153Z,5
2018-04-14T05:25:16.721Z,5
2018-04-14T05:26:17.290Z,5
2018-04-14T05:27:17.293Z,5
2018-04-14T05:28:17.045Z,5
2018-04-14T05:29:17.340Z,5
2018-04-14T05:30:16.801Z,5
2018-04-14T05:31:17.447Z,5
2018-04-14T05:32:16.849Z,5
2018-04-14T05:33:17.129Z,5
2018-04-14T05:34:17.224Z,5
2018-04-14T05:35:17.149Z,5
2018-04-14T05:36:17.199Z,5
2018-04-14T05:37:17.214Z,5
2018-04-14T05:38:17.226Z,5
2018-04-14T05:39:16.973Z,10
2018-04-14T05:40:17.555Z,10
2018-04-14T05:41:17.263Z,10
2018-04-14T05:42:17.319Z,5
2018-04-14T05:43:17.295Z,5
2018-04-14T05:44:17.662Z,10
2018-04-14T05:45:17.363Z,10
2018-04-14T05:46:17.063Z,10
2018-04-14T05:47:17.398Z,10
2018-04-14T05:48:17.408Z,10
2018-04-14T05:49:17.140Z,10
2018-04-14T05:50:16.857Z,10
2018-04-14T05:51:17.763Z,10
2018-04-14T05:52:17.739Z,10
2018-04-14T05:53:17.777Z,10
2018-04-14T05:54:17.508Z,10
2018-04-14T05:55:18.261Z,10
2018-04-14T05:56:17.275Z,10
2018-04-14T05:57:17.297Z,10
2018-04-14T05:58:17.870Z,10
2018-04-14T05:59:17.963Z,10
2018-04-14T06:00:17.503Z,10
2018-04-14T06:01:17.930Z,10
2018-04-14T06:02:17.634Z,10
2018-04-14T06:03:17.685Z,10
2018-04-14T06:04:18.043Z,10
2018-04-14T06:05:17.447Z,10
2018-04-14T06:06:17.443Z,10
2018-04-14T06:07:17.720Z,10
2018-04-14T06:08:18.028Z,10
2018-04-14T06:09:18.360Z,10
2018-04-14T06:10:18.092Z,10
2018-04-14T06:11:18.104Z,10
2018-04-14T06:12:17.847Z,10
2018-04-14T06:13:17.825Z,10
2018-04-14T06:14:17.931Z,10
2018-04-14T06:15:17.888Z,10
2018-04-14T06:16:18.172Z,10
2018-04-14T06:17:17.920Z,10
2018-04-14T06:18:17.642Z,10
2018-04-14T06:19:18.259Z,10
2018-04-14T06:20:18.340Z,10
2018-04-14T06:21:17.987Z,10
2018-04-14T06:22:18.387Z,10
2018-04-14T06:23:18.322Z,10
2018-04-14T06:24:18.338Z,15
2018-04-14T06:25:18.067Z,15
2018-04-14T06:26:18.099Z,15
2018-04-14T06:27:17.814Z,15
2018-04-14T06:28:18.311Z,15
2018-04-14T06:29:18.140Z,20
2018-04-14T06:30:18.452Z,20
2018-04-14T06:31:18.172Z,20
2018-04-14T06:32:18.456Z,15
2018-04-14T06:33:18.524Z,15
2018-04-14T06:34:18.515Z,15
2018-04-14T06:35:17.407Z,15
2018-04-14T06:36:18.529Z,15
2018-04-14T06:37:18.570Z,15
2018-04-14T06:38:18.296Z,15
2018-04-14T06:39:18.305Z,20
2018-04-14T06:40:18.044Z,20
2018-04-14T06:41:18.070Z,20
2018-04-14T06:42:18.669Z,25
2018-04-14T06:43:18.388Z,25
2018-04-14T06:44:18.418Z,25
2018-04-14T06:45:18.426Z,20
2018-04-14T06:46:18.179Z,15
2018-04-14T06:47:18.725Z,15
2018-04-14T06:48:18.493Z,15
2018-04-14T06:49:18.523Z,15
2018-04-14T06:50:18.620Z,15
2018-04-14T06:51:18.550Z,15
2018-04-14T06:52:18.931Z,15
2018-04-14T06:53:18.846Z,15
2018-04-14T06:54:18.885Z,20
2018-04-14T06:55:18.400Z,20
2018-04-14T06:56:18.920Z,20
2018-04-14T06:57:18.911Z,20
2018-04-14T06:58:18.375Z,25
2018-04-14T06:59:19.001Z,25
2018-04-14T07:00:18.422Z,30
2018-04-14T07:01:18.751Z,30
2018-04-14T07:02:18.504Z,25
2018-04-14T07:03:18.461Z,20
2018-04-14T07:04:18.781Z,20
2018-04-14T07:05:19.110Z,20
2018-04-14T07:06:18.801Z,20
2018-04-14T07:07:18.833Z,25
2018-04-14T07:08:18.571Z,25
2018-04-14T07:09:19.325Z,25
2018-04-14T07:10:19.189Z,20
2018-04-14T07:11:18.907Z,20
2018-04-14T07:12:19.179Z,20
2018-04-14T07:13:19.245Z,20
2018-04-14T07:14:18.956Z,20
2018-04-14T07:15:19.247Z,25
2018-04-14T07:16:18.986Z,25
2018-04-14T07:17:19.355Z,30
2018-04-14T07:18:18.785Z,30
2018-04-14T07:19:19.341Z,30
2018-04-14T07:20:18.809Z,30
2018-04-14T07:21:19.368Z,30
2018-04-14T07:22:19.457Z,30
2018-04-14T07:23:18.846Z,30
2018-04-14T07:24:19.438Z,30
2018-04-14T07:25:19.438Z,30
2018-04-14T07:26:19.173Z,30
2018-04-14T07:27:19.543Z,30
2018-04-14T07:28:19.498Z,25
2018-04-14T07:29:19.293Z,30
2018-04-14T07:30:19.546Z,30
2018-04-14T07:31:19.260Z,30
2018-04-14T07:32:19.648Z,30
2018-04-14T07:33:19.314Z,30
2018-04-14T07:34:19.064Z,30
2018-04-14T07:35:19.347Z,30
2018-04-14T07:36:19.403Z,30
2018-04-14T07:37:19.410Z,30
2018-04-14T07:38:20.240Z,30
2018-04-14T07:39:19.421Z,30
2018-04-14T07:40:19.721Z,30
2018-04-14T07:41:19.852Z,30
2018-04-14T07:42:19.813Z,25
2018-04-14T07:43:19.795Z,25
2018-04-14T07:44:19.829Z,25
2018-04-14T07:45:19.545Z,25
2018-04-14T07:46:19.856Z,25
2018-04-14T07:47:19.906Z,25
2018-04-14T07:48:19.857Z,25
2018-04-14T07:49:19.333Z,25
2018-04-14T07:50:19.649Z,25
2018-04-14T07:51:19.374Z,25
2018-04-14T07:52:19.950Z,25
2018-04-14T07:53:19.196Z,25
2018-04-14T07:54:19.982Z,20
2018-04-14T07:55:19.451Z,25
2018-04-14T07:56:19.479Z,25
2018-04-14T07:57:20.026Z,25
2018-04-14T07:58:20.337Z,25
2018-04-14T07:59:19.501Z,25
2018-04-14T08:00:19.588Z,25
2018-04-14T08:01:19.261Z,25
2018-04-14T08:02:19.861Z,25
2018-04-14T08:03:20.157Z,25
2018-04-14T08:04:20.164Z,30
2018-04-14T08:05:20.218Z,30
2018-04-14T08:06:20.127Z,30
2018-04-14T08:07:20.227Z,30
2018-04-14T08:08:19.984Z,30
2018-04-14T08:09:19.981Z,25
2018-04-14T08:10:20.301Z,25
2018-04-14T08:11:20.310Z,25
2018-04-14T08:12:20.036Z,25
2018-04-14T08:13:20.330Z,20
2018-04-14T08:14:19.551Z,20
2018-04-14T08:15:20.117Z,15
2018-04-14T08:16:20.115Z,15
2018-04-14T08:17:20.172Z,15
2018-04-14T08:18:20.457Z,15
2018-04-14T08:19:20.196Z,15
2018-04-14T08:20:20.497Z,15
2018-04-14T08:21:20.502Z,15
2018-04-14T08:22:20.283Z,15
2018-04-14T08:23:19.998Z,15
2018-04-14T08:24:20.268Z,15
2018-04-14T08:25:20.036Z,15
2018-04-14T08:26:20.586Z,15
2018-04-14T08:27:20.633Z,20
2018-04-14T08:28:20.093Z,15
2018-04-14T08:29:20.693Z,15
2018-04-14T08:30:20.126Z,15
2018-04-14T08:31:20.701Z,15
2018-04-14T08:32:20.777Z,15
2018-04-14T08:33:19.902Z,15
2018-04-14T08:34:20.772Z,10
2018-04-14T08:35:20.747Z,10
2018-04-14T08:36:20.827Z,10
2018-04-14T08:37:20.414Z,10
2018-04-14T08:38:20.847Z,10
2018-04-14T08:39:20.596Z,10
2018-04-14T08:40:20.618Z,10
2018-04-14T08:41:20.078Z,10
2018-04-14T08:42:20.898Z,10
2018-04-14T08:43:20.399Z,10
2018-04-14T08:44:20.675Z,15
2018-04-14T08:45:20.399Z,15
2018-04-14T08:46:20.705Z,15
2018-04-14T08:47:20.621Z,15
2018-04-14T08:48:20.515Z,20
2018-04-14T08:49:21.042Z,15
2018-04-14T08:50:20.761Z,15
2018-04-14T08:51:20.811Z,15
2018-04-14T08:52:20.835Z,15
2018-04-14T08:53:21.258Z,15
2018-04-14T08:54:20.851Z,15
2018-04-14T08:55:21.574Z,15
2018-04-14T08:56:21.205Z,15
2018-04-14T08:57:21.201Z,15
2018-04-14T08:58:21.269Z,15
2018-04-14T08:59:20.980Z,15
2018-04-14T09:00:21.246Z,15
2018-04-14T09:01:21.008Z,15
2018-04-14T09:02:21.301Z,15
2018-04-14T09:03:20.779Z,15
2018-04-14T09:04:21.096Z,15
2018-04-14T09:05:21.350Z,15
2018-04-14T09:06:21.372Z,15
2018-04-14T09:07:21.407Z,15
2018-04-14T09:08:21.128Z,15
2018-04-14T09:09:20.893Z,15
2018-04-14T09:10:20.927Z,15
2018-04-14T09:11:20.930Z,15
2018-04-14T09:12:21.227Z,15
2018-04-14T09:13:21.233Z,15
2018-04-14T09:14:20.974Z,15
2018-04-14T09:15:21.287Z,15
2018-04-14T09:16:21.306Z,15
2018-04-14T09:17:21.312Z,15
2018-04-14T09:18:21.334Z,15
2018-04-14T09:19:21.666Z,15
2018-04-14T09:20:21.381Z,15
2018-04-14T09:21:21.415Z,15
2018-04-14T09:22:21.442Z,15
2018-04-14T09:23:21.152Z,15
2018-04-14T09:24:21.731Z,15
2018-04-14T09:25:21.812Z,15
2018-04-14T09:26:21.498Z,15
2018-04-14T09:27:21.210Z,15
2018-04-14T09:28:21.813Z,15
2018-04-14T09:29:21.563Z,15
2018-04-14T09:30:21.028Z,15
2018-04-14T09:31:21.856Z,15
2018-04-14T09:32:21.900Z,15
2018-04-14T09:33:21.145Z,15
2018-04-14T09:34:21.940Z,15
2018-04-14T09:35:21.938Z,20
2018-04-14T09:36:22.023Z,15
2018-04-14T09:37:22.016Z,15
2018-04-14T09:38:21.750Z,15
2018-04-14T09:39:21.495Z,15
2018-04-14T09:40:22.064Z,15
2018-04-14T09:41:22.092Z,15
2018-04-14T09:42:22.041Z,15
2018-04-14T09:43:22.101Z,15
2018-04-14T09:44:21.855Z,15
2018-04-14T09:45:21.909Z,15
2018-04-14T09:46:21.891Z,15
2018-04-14T09:47:21.643Z,15
2018-04-14T09:48:22.000Z,15
2018-04-14T09:49:21.679Z,15
2018-04-14T09:50:21.960Z,15
2018-04-14T09:51:21.981Z,20
2018-04-14T09:52:22.009Z,20
2018-04-14T09:53:22.356Z,15
2018-04-14T09:54:22.072Z,15
2018-04-14T09:55:22.347Z,15
2018-04-14T09:56:22.147Z,15
2018-04-14T09:57:22.417Z,15
2018-04-14T09:58:22.142Z,20
2018-04-14T09:59:22.428Z,20
2018-04-14T10:00:21.928Z,20
2018-04-14T10:01:22.206Z,20
2018-04-14T10:02:21.971Z,20
2018-04-14T10:03:22.297Z,20
2018-04-14T10:04:21.979Z,20
2018-04-14T10:05:22.556Z,20
2018-04-14T10:06:22.581Z,20
2018-04-14T10:07:22.362Z,20
2018-04-14T10:08:22.622Z,20
2018-04-14T10:09:22.654Z,20
2018-04-14T10:10:22.876Z,15
2018-04-14T10:11:22.419Z,20
2018-04-14T10:12:22.774Z,20
2018-04-14T10:13:22.791Z,20
2018-04-14T10:14:22.194Z,20
2018-04-14T10:15:21.661Z,20
2018-04-14T10:16:22.759Z,20
2018-04-14T10:17:22.792Z,20
2018-04-14T10:18:22.604Z,20
2018-04-14T10:19:22.836Z,25
2018-04-14T10:20:22.914Z,15
2018-04-14T10:21:22.604Z,20
2018-04-14T10:22:22.900Z,35
2018-04-14T10:23:23.001Z,40
2018-04-14T10:24:22.981Z,40
2018-04-14T10:25:22.417Z,45
2018-04-14T10:26:22.745Z,45
2018-04-14T10:27:22.471Z,40
2018-04-14T10:28:22.813Z,40
2018-04-14T10:29:22.784Z,55
2018-04-14T10:30:23.098Z,30
2018-04-14T10:31:22.601Z,25
2018-04-14T10:32:23.282Z,30
2018-04-14T10:33:23.155Z,25
2018-04-14T10:34:23.203Z,25
2018-04-14T10:35:22.625Z,25
2018-04-14T10:36:23.246Z,25
2018-04-14T10:37:22.700Z,25
2018-04-14T10:38:23.276Z,25
2018-04-14T10:39:23.268Z,25
2018-04-14T10:40:23.009Z,25
2018-04-14T10:41:22.758Z,25
2018-04-14T10:42:23.372Z,25
2018-04-14T10:43:23.083Z,25
2018-04-14T10:44:23.421Z,25
2018-04-14T10:45:23.186Z,30
2018-04-14T10:46:23.458Z,40
2018-04-14T10:47:23.509Z,55
2018-04-14T10:48:23.010Z,50
2018-04-14T10:49:23.249Z,60
2018-04-14T10:50:22.989Z,50
2018-04-14T10:51:23.559Z,30
2018-04-14T10:52:23.565Z,30
2018-04-14T10:53:22.789Z,35
2018-04-14T10:54:23.617Z,35
2018-04-14T10:55:23.561Z,30
2018-04-14T10:56:23.683Z,30
2018-04-14T10:57:23.411Z,30
2018-04-14T10:58:23.506Z,45
2018-04-14T10:59:23.461Z,45
2018-04-14T11:00:23.512Z,40
2018-04-14T11:01:23.517Z,35
2018-04-14T11:02:23.522Z,30
2018-04-14T11:03:23.955Z,45
2018-04-14T11:04:23.578Z,25
2018-04-14T11:05:23.891Z,15
2018-04-14T11:06:23.631Z,20
2018-04-14T11:07:23.639Z,20
2018-04-14T11:08:23.712Z,15
2018-04-14T11:09:23.988Z,20
2018-04-14T11:10:24.029Z,20
2018-04-14T11:11:24.026Z,20
2018-04-14T11:12:23.748Z,25
2018-04-14T11:13:23.814Z,40
2018-04-14T11:14:23.806Z,25
2018-04-14T11:15:23.595Z,20
2018-04-14T11:16:23.867Z,25
2018-04-14T11:17:23.585Z,35
2018-04-14T11:18:23.941Z,35
2018-04-14T11:19:23.624Z,55
2018-04-14T11:20:23.951Z,60
2018-04-14T11:21:23.678Z,55
2018-04-14T11:22:24.002Z,40
2018-04-14T11:23:23.746Z,50
2018-04-14T11:24:24.340Z,40
2018-04-14T11:25:24.076Z,20
2018-04-14T11:26:24.339Z,30
2018-04-14T11:27:24.091Z,25
2018-04-14T11:28:24.417Z,20
2018-04-14T11:29:24.169Z,25
2018-04-14T11:30:24.445Z,20
2018-04-14T11:31:24.866Z,20
2018-04-14T11:32:24.225Z,25
2018-04-14T11:33:24.041Z,15
2018-04-14T11:34:24.565Z,20
2018-04-14T11:35:24.602Z,15
2018-04-14T11:36:24.006Z,15
2018-04-14T11:37:24.361Z,25
2018-04-14T11:38:24.688Z,35
2018-04-14T11:39:24.391Z,30
2018-04-14T11:40:24.678Z,30
2018-04-14T11:41:24.133Z,15
2018-04-14T11:42:24.735Z,15
2018-04-14T11:43:24.810Z,15
2018-04-14T11:44:24.775Z,15
2018-04-14T11:45:24.527Z,20
2018-04-14T11:46:24.548Z,30
2018-04-14T11:47:24.574Z,30
2018-04-14T11:48:24.876Z,30
2018-04-14T11:49:24.892Z,35
2018-04-14T11:50:24.648Z,30
2018-04-14T11:51:24.983Z,30
2018-04-14T11:52:24.997Z,30
2018-04-14T11:53:24.438Z,25
2018-04-14T11:54:24.722Z,30
2018-04-14T11:55:25.097Z,25
2018-04-14T11:56:25.056Z,20
2018-04-14T11:57:25.124Z,30
2018-04-14T11:58:24.846Z,30
2018-04-14T11:59:25.154Z,30
2018-04-14T12:00:25.170Z,30
2018-04-14T12:01:24.648Z,30
2018-04-14T12:02:25.037Z,30
2018-04-14T12:03:24.979Z,25
2018-04-14T12:04:24.711Z,30
2018-04-14T12:05:24.440Z,30
2018-04-14T12:06:25.300Z,30
2018-04-14T12:07:25.065Z,30
2018-04-14T12:08:25.411Z,20
2018-04-14T12:09:25.394Z,25
2018-04-14T12:10:25.396Z,30
2018-04-14T12:11:25.158Z,30
2018-04-14T12:12:25.156Z,30
2018-04-14T12:13:25.191Z,30
2018-04-14T12:14:25.231Z,30
2018-04-14T12:15:24.981Z,35
2018-04-14T12:16:25.580Z,35
2018-04-14T12:17:25.585Z,45
2018-04-14T12:18:25.316Z,50
2018-04-14T12:19:25.054Z,40
2018-04-14T12:20:25.667Z,45
2018-04-14T12:21:25.687Z,50
2018-04-14T12:22:25.397Z,55
2018-04-14T12:23:25.751Z,50
2018-04-14T12:24:25.712Z,45
2018-04-14T12:25:25.470Z,40
2018-04-14T12:26:25.510Z,45
2018-04-14T12:27:25.586Z,40
2018-04-14T12:28:25.990Z,40
2018-04-14T12:29:25.827Z,45
2018-04-14T12:30:25.919Z,45
2018-04-14T12:31:25.917Z,45
2018-04-14T12:32:25.685Z,45
2018-04-14T12:33:25.728Z,40
2018-04-14T12:34:25.988Z,30
2018-04-14T12:35:25.690Z,35
2018-04-14T12:36:25.480Z,35
2018-04-14T12:37:26.061Z,35
2018-04-14T12:38:25.528Z,45
2018-04-14T12:39:26.108Z,45
2018-04-14T12:40:26.129Z,35
2018-04-14T12:41:25.886Z,35
2018-04-14T12:42:25.914Z,35
2018-04-14T12:43:25.935Z,40
2018-04-14T12:44:25.693Z,45
2018-04-14T12:45:25.688Z,55
2018-04-14T12:46:26.268Z,50
2018-04-14T12:47:25.728Z,40
2018-04-14T12:48:26.038Z,35
2018-04-14T12:49:25.821Z,35
2018-04-14T12:50:26.124Z,50
2018-04-14T12:51:26.109Z,60
2018-04-14T12:52:25.849Z,60
2018-04-14T12:53:26.459Z,60
2018-04-14T12:54:26.203Z,65
2018-04-14T12:55:26.261Z,65
2018-04-14T12:56:26.231Z,70
2018-04-14T12:57:26.535Z,65
2018-04-14T12:58:26.049Z,65
2018-04-14T12:59:26.603Z,65
2018-04-14T13:00:26.351Z,60
2018-04-14T13:01:26.406Z,60
2018-04-14T13:02:26.413Z,55
2018-04-14T13:03:26.707Z,55
2018-04-14T13:04:26.469Z,60
2018-04-14T13:05:26.724Z,50
2018-04-14T13:06:26.533Z,50
2018-04-14T13:07:26.269Z,45
2018-04-14T13:08:26.281Z,55
2018-04-14T13:09:26.566Z,60
2018-04-14T13:10:26.604Z,55
2018-04-14T13:11:26.351Z,55
2018-04-14T13:12:26.660Z,50
2018-04-14T13:13:26.784Z,50
2018-04-14T13:14:27.029Z,45
2018-04-14T13:15:26.752Z,50
2018-04-14T13:16:27.038Z,50
2018-04-14T13:17:26.829Z,50
2018-04-14T13:18:26.820Z,55
2018-04-14T13:19:26.327Z,45
2018-04-14T13:20:27.157Z,40
2018-04-14T13:21:27.193Z,40
2018-04-14T13:22:26.916Z,35
2018-04-14T13:23:27.219Z,40
2018-04-14T13:24:26.963Z,55
2018-04-14T13:25:27.347Z,65
2018-04-14T13:26:27.004Z,45
2018-04-14T13:27:27.025Z,35
2018-04-14T13:28:27.348Z,35
2018-04-14T13:29:26.507Z,35
2018-04-14T13:30:27.140Z,35
2018-04-14T13:31:26.897Z,25
2018-04-14T13:32:27.474Z,20
2018-04-14T13:33:27.214Z,20
2018-04-14T13:34:26.935Z,20
2018-04-14T13:35:27.560Z,25
2018-04-14T13:36:27.559Z,35
2018-04-14T13:37:27.017Z,40
2018-04-14T13:38:27.339Z,50
2018-04-14T13:39:27.354Z,60
2018-04-14T13:40:27.709Z,45
2018-04-14T13:41:27.711Z,35
2018-04-14T13:42:27.736Z,40
2018-04-14T13:43:27.501Z,45
2018-04-14T13:44:27.205Z,60
2018-04-14T13:45:27.546Z,65
2018-04-14T13:46:27.293Z,65
2018-04-14T13:47:27.297Z,55
2018-04-14T13:48:27.610Z,50
2018-04-14T13:49:27.660Z,55
2018-04-14T13:50:27.947Z,55
2018-04-14T13:51:27.393Z,50
2018-04-14T13:52:27.738Z,40
2018-04-14T13:53:27.943Z,35
2018-04-14T13:54:27.721Z,40
2018-04-14T13:55:27.494Z,40
2018-04-14T13:56:28.099Z,50
2018-04-14T13:57:28.122Z,45
2018-04-14T13:58:27.875Z,40
2018-04-14T13:59:27.879Z,35
2018-04-14T14:00:27.649Z,30
2018-04-14T14:01:27.929Z,30
2018-04-14T14:02:27.973Z,40
2018-04-14T14:03:27.752Z,40
2018-04-14T14:04:27.475Z,45
2018-04-14T14:05:27.491Z,55
2018-04-14T14:06:28.366Z,60
2018-04-14T14:07:28.389Z,50
2018-04-14T14:08:27.866Z,50
2018-04-14T14:09:27.620Z,45
2018-04-14T14:10:28.008Z,25
2018-04-14T14:11:28.214Z,25
2018-04-14T14:12:28.266Z,40
2018-04-14T14:13:28.284Z,45
2018-04-14T14:14:28.054Z,45
2018-04-14T14:15:28.433Z,50
2018-04-14T14:16:28.629Z,45
2018-04-14T14:17:28.066Z,40
2018-04-14T14:18:28.724Z,35
2018-04-14T14:19:28.143Z,35
2018-04-14T14:20:28.231Z,35
2018-04-14T14:21:28.789Z,35
2018-04-14T14:22:28.544Z,35
2018-04-14T14:23:28.525Z,40
2018-04-14T14:24:28.847Z,35
2018-04-14T14:25:28.852Z,35
2018-04-14T14:26:28.359Z,35
2018-04-14T14:27:28.655Z,35